sensor_id;sensor_type;location;lat;lon;timestamp;P1;durP1;ratioP1;P2;durP2;ratioP2
79135;SDS011;68533;51.090;17.216;2024-02-23T00:00:25;5.55;;;2.78;;
79135;SDS011;68533;51.090;17.216;2024-02-23T00:03:50;6.75;;;2.67;;
79135;SDS011;68533;51.090;17.216;2024-02-23T00:07:18;3.58;;;2.67;;
79135;SDS011;68533;51.090;17.216;2024-02-23T00:10:44;4.53;;;2.15;;
79135;SDS011;68533;51.090;17.216;2024-02-23T00:14:11;3.15;;;2.35;;
79135;SDS011;68533;51.090;17.216;2024-02-23T00:17:36;2.97;;;2.10;;
79135;SDS011;68533;51.090;17.216;2024-02-23T00:21:03;3.53;;;2.10;;
79135;SDS011;68533;51.090;17.216;2024-02-23T00:24:29;3.03;;;1.40;;
79135;SDS011;68533;51.090;17.216;2024-02-23T00:27:53;4.13;;;2.15;;
79135;SDS011;68533;51.090;17.216;2024-02-23T00:31:18;1.85;;;1.17;;
79135;SDS011;68533;51.090;17.216;2024-02-23T00:34:42;2.25;;;1.58;;
79135;SDS011;68533;51.090;17.216;2024-02-23T00:38:07;2.58;;;1.52;;
79135;SDS011;68533;51.090;17.216;2024-02-23T00:41:33;1.98;;;1.02;;
79135;SDS011;68533;51.090;17.216;2024-02-23T00:44:58;1.02;;;0.57;;
79135;SDS011;68533;51.090;17.216;2024-02-23T00:48:22;1.60;;;0.88;;
79135;SDS011;68533;51.090;17.216;2024-02-23T00:51:48;0.88;;;0.65;;
79135;SDS011;68533;51.090;17.216;2024-02-23T00:55:13;1.55;;;0.90;;
79135;SDS011;68533;51.090;17.216;2024-02-23T00:58:39;1.35;;;1.00;;
79135;SDS011;68533;51.090;17.216;2024-02-23T01:02:03;1.85;;;0.95;;
79135;SDS011;68533;51.090;17.216;2024-02-23T01:05:28;3.15;;;1.30;;
79135;SDS011;68533;51.090;17.216;2024-02-23T01:08:53;1.60;;;0.80;;
79135;SDS011;68533;51.090;17.216;2024-02-23T01:12:18;1.40;;;1.00;;
79135;SDS011;68533;51.090;17.216;2024-02-23T01:15:45;2.85;;;1.02;;
79135;SDS011;68533;51.090;17.216;2024-02-23T01:19:10;0.95;;;0.68;;
79135;SDS011;68533;51.090;17.216;2024-02-23T01:22:34;2.67;;;1.23;;
79135;SDS011;68533;51.090;17.216;2024-02-23T01:25:59;1.35;;;1.02;;
79135;SDS011;68533;51.090;17.216;2024-02-23T01:29:25;1.73;;;0.80;;
79135;SDS011;68533;51.090;17.216;2024-02-23T01:32:50;0.80;;;0.65;;
79135;SDS011;68533;51.090;17.216;2024-02-23T01:36:15;3.53;;;1.00;;
79135;SDS011;68533;51.090;17.216;2024-02-23T01:39:41;1.70;;;0.98;;
79135;SDS011;68533;51.090;17.216;2024-02-23T01:46:30;2.70;;;1.27;;
79135;SDS011;68533;51.090;17.216;2024-02-23T01:49:56;1.70;;;0.90;;
79135;SDS011;68533;51.090;17.216;2024-02-23T01:53:22;2.25;;;1.17;;
79135;SDS011;68533;51.090;17.216;2024-02-23T01:56:48;2.95;;;1.08;;
79135;SDS011;68533;51.090;17.216;2024-02-23T02:00:17;2.08;;;0.95;;
79135;SDS011;68533;51.090;17.216;2024-02-23T02:03:42;2.58;;;1.23;;
79135;SDS011;68533;51.090;17.216;2024-02-23T02:10:31;2.22;;;1.20;;
79135;SDS011;68533;51.090;17.216;2024-02-23T02:13:56;2.00;;;1.40;;
79135;SDS011;68533;51.090;17.216;2024-02-23T02:17:25;2.90;;;1.30;;
79135;SDS011;68533;51.090;17.216;2024-02-23T02:20:51;3.00;;;1.67;;
79135;SDS011;68533;51.090;17.216;2024-02-23T02:24:16;5.95;;;1.80;;
79135;SDS011;68533;51.090;17.216;2024-02-23T02:27:41;2.22;;;1.23;;
79135;SDS011;68533;51.090;17.216;2024-02-23T02:31:06;1.75;;;1.08;;
79135;SDS011;68533;51.090;17.216;2024-02-23T02:37:57;3.30;;;1.77;;
79135;SDS011;68533;51.090;17.216;2024-02-23T02:41:22;3.38;;;2.30;;
79135;SDS011;68533;51.090;17.216;2024-02-23T02:44:48;4.50;;;2.42;;
79135;SDS011;68533;51.090;17.216;2024-02-23T02:48:12;4.50;;;2.13;;
79135;SDS011;68533;51.090;17.216;2024-02-23T02:55:02;4.32;;;1.80;;
79135;SDS011;68533;51.090;17.216;2024-02-23T02:58:26;2.72;;;1.80;;
79135;SDS011;68533;51.090;17.216;2024-02-23T03:01:51;4.00;;;1.95;;
79135;SDS011;68533;51.090;17.216;2024-02-23T03:05:16;3.17;;;1.83;;
79135;SDS011;68533;51.090;17.216;2024-02-23T03:08:42;2.20;;;1.52;;
79135;SDS011;68533;51.090;17.216;2024-02-23T03:12:06;2.63;;;1.50;;
79135;SDS011;68533;51.090;17.216;2024-02-23T03:15:31;2.30;;;1.60;;
79135;SDS011;68533;51.090;17.216;2024-02-23T03:18:56;2.05;;;1.33;;
79135;SDS011;68533;51.090;17.216;2024-02-23T03:22:23;4.03;;;1.92;;
79135;SDS011;68533;51.090;17.216;2024-02-23T03:25:48;5.40;;;2.45;;
79135;SDS011;68533;51.090;17.216;2024-02-23T03:29:13;4.38;;;1.75;;
79135;SDS011;68533;51.090;17.216;2024-02-23T03:32:38;6.03;;;1.65;;
79135;SDS011;68533;51.090;17.216;2024-02-23T03:39:28;2.95;;;1.30;;
79135;SDS011;68533;51.090;17.216;2024-02-23T03:42:53;2.72;;;1.70;;
79135;SDS011;68533;51.090;17.216;2024-02-23T03:46:18;2.75;;;1.30;;
79135;SDS011;68533;51.090;17.216;2024-02-23T03:49:42;2.28;;;1.55;;
79135;SDS011;68533;51.090;17.216;2024-02-23T03:53:07;6.15;;;2.20;;
79135;SDS011;68533;51.090;17.216;2024-02-23T03:56:38;2.75;;;1.48;;
79135;SDS011;68533;51.090;17.216;2024-02-23T04:00:03;2.28;;;1.48;;
79135;SDS011;68533;51.090;17.216;2024-02-23T04:03:28;2.17;;;1.27;;
79135;SDS011;68533;51.090;17.216;2024-02-23T04:06:53;2.40;;;1.80;;
79135;SDS011;68533;51.090;17.216;2024-02-23T04:10:18;3.58;;;2.30;;
79135;SDS011;68533;51.090;17.216;2024-02-23T04:17:07;4.95;;;3.50;;
79135;SDS011;68533;51.090;17.216;2024-02-23T04:20:31;5.90;;;4.03;;
79135;SDS011;68533;51.090;17.216;2024-02-23T04:23:56;6.38;;;4.53;;
79135;SDS011;68533;51.090;17.216;2024-02-23T04:30:45;3.22;;;1.77;;
79135;SDS011;68533;51.090;17.216;2024-02-23T04:34:09;2.58;;;1.63;;
79135;SDS011;68533;51.090;17.216;2024-02-23T04:37:34;2.33;;;1.00;;
79135;SDS011;68533;51.090;17.216;2024-02-23T04:41:02;5.45;;;1.88;;
79135;SDS011;68533;51.090;17.216;2024-02-23T04:44:27;2.63;;;1.60;;
79135;SDS011;68533;51.090;17.216;2024-02-23T04:47:52;1.65;;;1.30;;
79135;SDS011;68533;51.090;17.216;2024-02-23T04:54:41;1.95;;;1.40;;
79135;SDS011;68533;51.090;17.216;2024-02-23T04:58:07;1.30;;;1.05;;
79135;SDS011;68533;51.090;17.216;2024-02-23T05:01:34;1.65;;;1.17;;
79135;SDS011;68533;51.090;17.216;2024-02-23T05:05:01;2.30;;;1.17;;
79135;SDS011;68533;51.090;17.216;2024-02-23T05:08:26;2.55;;;1.20;;
79135;SDS011;68533;51.090;17.216;2024-02-23T05:11:51;3.45;;;1.38;;
79135;SDS011;68533;51.090;17.216;2024-02-23T05:15:17;2.95;;;1.45;;
79135;SDS011;68533;51.090;17.216;2024-02-23T05:18:42;1.17;;;0.82;;
79135;SDS011;68533;51.090;17.216;2024-02-23T05:22:06;2.72;;;1.40;;
79135;SDS011;68533;51.090;17.216;2024-02-23T05:25:31;2.00;;;1.08;;
79135;SDS011;68533;51.090;17.216;2024-02-23T05:32:20;3.75;;;1.52;;
79135;SDS011;68533;51.090;17.216;2024-02-23T05:35:46;2.33;;;1.45;;
79135;SDS011;68533;51.090;17.216;2024-02-23T05:39:12;2.92;;;1.25;;
79135;SDS011;68533;51.090;17.216;2024-02-23T05:42:39;2.58;;;1.25;;
79135;SDS011;68533;51.090;17.216;2024-02-23T05:46:03;2.70;;;1.73;;
79135;SDS011;68533;51.090;17.216;2024-02-23T05:49:28;1.98;;;1.23;;
79135;SDS011;68533;51.090;17.216;2024-02-23T05:52:54;9.27;;;1.60;;
79135;SDS011;68533;51.090;17.216;2024-02-23T05:56:18;2.83;;;1.67;;
79135;SDS011;68533;51.090;17.216;2024-02-23T05:59:43;2.47;;;1.70;;
79135;SDS011;68533;51.090;17.216;2024-02-23T06:03:07;2.33;;;1.70;;
79135;SDS011;68533;51.090;17.216;2024-02-23T06:06:32;2.30;;;1.80;;
79135;SDS011;68533;51.090;17.216;2024-02-23T06:09:58;4.38;;;2.25;;
79135;SDS011;68533;51.090;17.216;2024-02-23T06:13:25;2.85;;;1.80;;
79135;SDS011;68533;51.090;17.216;2024-02-23T06:16:50;2.60;;;1.60;;
79135;SDS011;68533;51.090;17.216;2024-02-23T06:20:15;2.63;;;1.48;;
79135;SDS011;68533;51.090;17.216;2024-02-23T06:23:40;3.35;;;1.63;;
79135;SDS011;68533;51.090;17.216;2024-02-23T06:27:08;2.95;;;1.83;;
79135;SDS011;68533;51.090;17.216;2024-02-23T06:30:33;2.97;;;1.55;;
79135;SDS011;68533;51.090;17.216;2024-02-23T06:34:00;3.97;;;1.63;;
79135;SDS011;68533;51.090;17.216;2024-02-23T06:37:26;3.45;;;1.83;;
79135;SDS011;68533;51.090;17.216;2024-02-23T06:40:54;4.75;;;1.48;;
79135;SDS011;68533;51.090;17.216;2024-02-23T06:44:19;3.45;;;1.75;;
79135;SDS011;68533;51.090;17.216;2024-02-23T06:47:45;4.57;;;2.55;;
79135;SDS011;68533;51.090;17.216;2024-02-23T06:51:11;2.97;;;1.70;;
79135;SDS011;68533;51.090;17.216;2024-02-23T06:54:35;3.65;;;1.60;;
79135;SDS011;68533;51.090;17.216;2024-02-23T06:58:02;1.85;;;1.17;;
79135;SDS011;68533;51.090;17.216;2024-02-23T07:01:28;3.10;;;1.75;;
79135;SDS011;68533;51.090;17.216;2024-02-23T07:04:53;3.75;;;2.00;;
79135;SDS011;68533;51.090;17.216;2024-02-23T07:08:17;6.63;;;2.22;;
79135;SDS011;68533;51.090;17.216;2024-02-23T07:11:42;3.65;;;1.63;;
79135;SDS011;68533;51.090;17.216;2024-02-23T07:15:09;4.15;;;1.98;;
79135;SDS011;68533;51.090;17.216;2024-02-23T07:18:34;1.98;;;1.60;;
79135;SDS011;68533;51.090;17.216;2024-02-23T07:22:00;3.15;;;1.50;;
79135;SDS011;68533;51.090;17.216;2024-02-23T07:25:24;2.70;;;1.42;;
79135;SDS011;68533;51.090;17.216;2024-02-23T07:28:49;2.97;;;1.92;;
79135;SDS011;68533;51.090;17.216;2024-02-23T07:32:16;2.55;;;1.38;;
79135;SDS011;68533;51.090;17.216;2024-02-23T07:35:44;6.25;;;1.63;;
79135;SDS011;68533;51.090;17.216;2024-02-23T07:39:09;2.67;;;1.80;;
79135;SDS011;68533;51.090;17.216;2024-02-23T07:42:35;3.40;;;1.58;;
79135;SDS011;68533;51.090;17.216;2024-02-23T07:46:00;2.90;;;1.13;;
79135;SDS011;68533;51.090;17.216;2024-02-23T07:49:28;5.47;;;1.40;;
79135;SDS011;68533;51.090;17.216;2024-02-23T07:52:53;2.38;;;1.75;;
79135;SDS011;68533;51.090;17.216;2024-02-23T07:59:43;2.85;;;1.95;;
79135;SDS011;68533;51.090;17.216;2024-02-23T08:03:08;3.13;;;1.38;;
79135;SDS011;68533;51.090;17.216;2024-02-23T08:06:33;2.30;;;1.73;;
79135;SDS011;68533;51.090;17.216;2024-02-23T08:09:57;5.70;;;2.00;;
79135;SDS011;68533;51.090;17.216;2024-02-23T08:13:22;3.40;;;2.20;;
79135;SDS011;68533;51.090;17.216;2024-02-23T08:16:47;3.33;;;1.73;;
79135;SDS011;68533;51.090;17.216;2024-02-23T08:20:12;4.05;;;1.73;;
79135;SDS011;68533;51.090;17.216;2024-02-23T08:23:37;5.68;;;2.35;;
79135;SDS011;68533;51.090;17.216;2024-02-23T08:27:04;3.63;;;2.50;;
79135;SDS011;68533;51.090;17.216;2024-02-23T08:30:29;3.80;;;2.10;;
79135;SDS011;68533;51.090;17.216;2024-02-23T08:37:25;3.53;;;1.90;;
79135;SDS011;68533;51.090;17.216;2024-02-23T08:40:52;3.75;;;1.75;;
79135;SDS011;68533;51.090;17.216;2024-02-23T08:44:18;3.15;;;1.80;;
79135;SDS011;68533;51.090;17.216;2024-02-23T08:47:43;3.42;;;1.98;;
79135;SDS011;68533;51.090;17.216;2024-02-23T08:51:07;2.70;;;1.92;;
79135;SDS011;68533;51.090;17.216;2024-02-23T08:54:33;5.03;;;2.75;;
79135;SDS011;68533;51.090;17.216;2024-02-23T08:57:59;6.57;;;2.20;;
79135;SDS011;68533;51.090;17.216;2024-02-23T09:01:24;4.70;;;2.08;;
79135;SDS011;68533;51.090;17.216;2024-02-23T09:04:49;2.45;;;1.60;;
79135;SDS011;68533;51.090;17.216;2024-02-23T09:08:13;1.50;;;1.05;;
79135;SDS011;68533;51.090;17.216;2024-02-23T09:11:38;0.20;;;0.20;;
79135;SDS011;68533;51.090;17.216;2024-02-23T09:15:03;0.20;;;0.20;;
79135;SDS011;68533;51.090;17.216;2024-02-23T09:18:28;2.08;;;0.70;;
79135;SDS011;68533;51.090;17.216;2024-02-23T09:21:53;1.63;;;0.40;;
79135;SDS011;68533;51.090;17.216;2024-02-23T09:25:18;2.53;;;1.00;;
79135;SDS011;68533;51.090;17.216;2024-02-23T09:28:43;5.45;;;0.98;;
79135;SDS011;68533;51.090;17.216;2024-02-23T09:32:09;1.05;;;0.55;;
79135;SDS011;68533;51.090;17.216;2024-02-23T09:35:34;6.18;;;1.83;;
79135;SDS011;68533;51.090;17.216;2024-02-23T09:38:58;7.03;;;2.05;;
79135;SDS011;68533;51.090;17.216;2024-02-23T09:42:23;2.67;;;1.10;;
79135;SDS011;68533;51.090;17.216;2024-02-23T09:45:51;1.73;;;0.70;;
79135;SDS011;68533;51.090;17.216;2024-02-23T09:49:16;2.67;;;0.68;;
79135;SDS011;68533;51.090;17.216;2024-02-23T09:52:46;0.98;;;0.38;;
79135;SDS011;68533;51.090;17.216;2024-02-23T09:56:13;2.25;;;0.77;;
79135;SDS011;68533;51.090;17.216;2024-02-23T09:59:40;3.15;;;1.02;;
79135;SDS011;68533;51.090;17.216;2024-02-23T10:03:05;0.88;;;0.50;;
79135;SDS011;68533;51.090;17.216;2024-02-23T10:06:31;3.30;;;1.02;;
79135;SDS011;68533;51.090;17.216;2024-02-23T10:09:56;2.08;;;0.75;;
79135;SDS011;68533;51.090;17.216;2024-02-23T10:13:23;1.38;;;0.50;;
79135;SDS011;68533;51.090;17.216;2024-02-23T10:16:49;3.53;;;1.00;;
79135;SDS011;68533;51.090;17.216;2024-02-23T10:20:14;6.15;;;1.77;;
79135;SDS011;68533;51.090;17.216;2024-02-23T10:23:39;1.98;;;0.80;;
79135;SDS011;68533;51.090;17.216;2024-02-23T10:27:05;1.30;;;0.45;;
79135;SDS011;68533;51.090;17.216;2024-02-23T10:30:31;2.33;;;0.55;;
79135;SDS011;68533;51.090;17.216;2024-02-23T10:34:01;2.67;;;1.00;;
79135;SDS011;68533;51.090;17.216;2024-02-23T10:37:34;1.52;;;0.50;;
79135;SDS011;68533;51.090;17.216;2024-02-23T10:41:01;2.33;;;0.57;;
79135;SDS011;68533;51.090;17.216;2024-02-23T10:44:31;2.65;;;0.88;;
79135;SDS011;68533;51.090;17.216;2024-02-23T10:47:57;2.85;;;0.90;;
79135;SDS011;68533;51.090;17.216;2024-02-23T10:51:22;2.60;;;0.85;;
79135;SDS011;68533;51.090;17.216;2024-02-23T10:54:49;1.13;;;0.50;;
79135;SDS011;68533;51.090;17.216;2024-02-23T10:58:21;1.20;;;0.40;;
79135;SDS011;68533;51.090;17.216;2024-02-23T11:01:50;0.75;;;0.52;;
79135;SDS011;68533;51.090;17.216;2024-02-23T11:05:19;1.02;;;0.47;;
79135;SDS011;68533;51.090;17.216;2024-02-23T11:08:47;1.13;;;0.60;;
79135;SDS011;68533;51.090;17.216;2024-02-23T11:12:23;0.63;;;0.50;;
79135;SDS011;68533;51.090;17.216;2024-02-23T11:16:03;3.30;;;0.73;;
79135;SDS011;68533;51.090;17.216;2024-02-23T11:19:48;1.08;;;0.50;;
79135;SDS011;68533;51.090;17.216;2024-02-23T11:23:19;1.52;;;0.60;;
79135;SDS011;68533;51.090;17.216;2024-02-23T11:26:44;1.05;;;0.38;;
79135;SDS011;68533;51.090;17.216;2024-02-23T11:30:09;2.10;;;0.40;;
79135;SDS011;68533;51.090;17.216;2024-02-23T11:33:50;2.58;;;0.60;;
79135;SDS011;68533;51.090;17.216;2024-02-23T11:37:22;2.00;;;0.57;;
79135;SDS011;68533;51.090;17.216;2024-02-23T11:40:50;1.33;;;0.57;;
79135;SDS011;68533;51.090;17.216;2024-02-23T11:44:16;1.45;;;0.60;;
79135;SDS011;68533;51.090;17.216;2024-02-23T11:47:41;1.88;;;0.70;;
79135;SDS011;68533;51.090;17.216;2024-02-23T11:51:05;1.48;;;0.50;;
79135;SDS011;68533;51.090;17.216;2024-02-23T11:54:34;3.33;;;0.55;;
79135;SDS011;68533;51.090;17.216;2024-02-23T11:57:59;1.70;;;0.75;;
79135;SDS011;68533;51.090;17.216;2024-02-23T12:01:28;2.80;;;0.60;;
79135;SDS011;68533;51.090;17.216;2024-02-23T12:04:53;1.00;;;0.60;;
79135;SDS011;68533;51.090;17.216;2024-02-23T12:08:18;1.88;;;0.70;;
79135;SDS011;68533;51.090;17.216;2024-02-23T12:11:45;3.25;;;0.60;;
79135;SDS011;68533;51.090;17.216;2024-02-23T12:15:12;2.53;;;0.40;;
79135;SDS011;68533;51.090;17.216;2024-02-23T12:18:37;2.65;;;0.60;;
79135;SDS011;68533;51.090;17.216;2024-02-23T12:22:05;1.25;;;0.55;;
79135;SDS011;68533;51.090;17.216;2024-02-23T12:25:33;1.75;;;0.70;;
79135;SDS011;68533;51.090;17.216;2024-02-23T12:29:00;0.77;;;0.32;;
79135;SDS011;68533;51.090;17.216;2024-02-23T12:32:25;2.30;;;0.50;;
79135;SDS011;68533;51.090;17.216;2024-02-23T12:35:53;1.77;;;0.80;;
79135;SDS011;68533;51.090;17.216;2024-02-23T12:39:18;4.32;;;1.20;;
79135;SDS011;68533;51.090;17.216;2024-02-23T12:42:45;3.40;;;0.80;;
79135;SDS011;68533;51.090;17.216;2024-02-23T12:46:10;3.38;;;0.75;;
79135;SDS011;68533;51.090;17.216;2024-02-23T12:49:35;4.30;;;0.73;;
79135;SDS011;68533;51.090;17.216;2024-02-23T12:53:00;1.85;;;0.65;;
79135;SDS011;68533;51.090;17.216;2024-02-23T12:56:26;1.50;;;0.60;;
79135;SDS011;68533;51.090;17.216;2024-02-23T12:59:50;3.53;;;0.77;;
79135;SDS011;68533;51.090;17.216;2024-02-23T13:03:15;1.95;;;0.93;;
79135;SDS011;68533;51.090;17.216;2024-02-23T13:06:40;4.97;;;0.60;;
79135;SDS011;68533;51.090;17.216;2024-02-23T13:10:06;2.15;;;0.50;;
79135;SDS011;68533;51.090;17.216;2024-02-23T13:13:34;1.70;;;0.57;;
79135;SDS011;68533;51.090;17.216;2024-02-23T13:16:58;2.08;;;0.95;;
79135;SDS011;68533;51.090;17.216;2024-02-23T13:20:23;2.15;;;0.88;;
79135;SDS011;68533;51.090;17.216;2024-02-23T13:23:48;2.83;;;0.75;;
79135;SDS011;68533;51.090;17.216;2024-02-23T13:30:38;1.05;;;0.45;;
79135;SDS011;68533;51.090;17.216;2024-02-23T13:34:05;2.72;;;0.82;;
79135;SDS011;68533;51.090;17.216;2024-02-23T13:37:32;2.35;;;0.90;;
79135;SDS011;68533;51.090;17.216;2024-02-23T13:40:58;3.53;;;0.70;;
79135;SDS011;68533;51.090;17.216;2024-02-23T13:44:23;1.80;;;0.65;;
79135;SDS011;68533;51.090;17.216;2024-02-23T13:51:30;1.77;;;0.68;;
79135;SDS011;68533;51.090;17.216;2024-02-23T13:54:57;2.00;;;0.95;;
79135;SDS011;68533;51.090;17.216;2024-02-23T13:58:22;2.20;;;1.45;;
79135;SDS011;68533;51.090;17.216;2024-02-23T14:01:47;5.28;;;1.48;;
79135;SDS011;68533;51.090;17.216;2024-02-23T14:05:13;2.00;;;0.68;;
79135;SDS011;68533;51.090;17.216;2024-02-23T14:08:39;1.33;;;0.40;;
79135;SDS011;68533;51.090;17.216;2024-02-23T14:12:04;3.00;;;0.88;;
79135;SDS011;68533;51.090;17.216;2024-02-23T14:15:30;2.22;;;0.57;;
79135;SDS011;68533;51.090;17.216;2024-02-23T14:19:04;2.22;;;0.90;;
79135;SDS011;68533;51.090;17.216;2024-02-23T14:22:29;3.70;;;1.58;;
79135;SDS011;68533;51.090;17.216;2024-02-23T14:25:54;1.80;;;0.65;;
79135;SDS011;68533;51.090;17.216;2024-02-23T14:29:19;0.95;;;0.30;;
79135;SDS011;68533;51.090;17.216;2024-02-23T14:32:44;2.42;;;0.52;;
79135;SDS011;68533;51.090;17.216;2024-02-23T14:36:09;1.55;;;0.70;;
79135;SDS011;68533;51.090;17.216;2024-02-23T14:39:33;0.90;;;0.45;;
79135;SDS011;68533;51.090;17.216;2024-02-23T14:42:58;0.50;;;0.45;;
79135;SDS011;68533;51.090;17.216;2024-02-23T14:46:23;2.92;;;0.68;;
79135;SDS011;68533;51.090;17.216;2024-02-23T14:49:48;4.30;;;0.70;;
79135;SDS011;68533;51.090;17.216;2024-02-23T14:53:13;1.25;;;0.38;;
79135;SDS011;68533;51.090;17.216;2024-02-23T14:56:39;1.85;;;0.73;;
79135;SDS011;68533;51.090;17.216;2024-02-23T15:00:04;2.42;;;0.90;;
79135;SDS011;68533;51.090;17.216;2024-02-23T15:03:29;3.60;;;1.20;;
79135;SDS011;68533;51.090;17.216;2024-02-23T15:06:54;4.40;;;1.55;;
79135;SDS011;68533;51.090;17.216;2024-02-23T15:10:19;5.25;;;2.85;;
79135;SDS011;68533;51.090;17.216;2024-02-23T15:13:44;4.18;;;2.03;;
79135;SDS011;68533;51.090;17.216;2024-02-23T15:17:09;5.25;;;1.90;;
79135;SDS011;68533;51.090;17.216;2024-02-23T15:20:35;1.70;;;1.00;;
79135;SDS011;68533;51.090;17.216;2024-02-23T15:27:32;3.08;;;1.35;;
79135;SDS011;68533;51.090;17.216;2024-02-23T15:30:57;4.57;;;1.88;;
79135;SDS011;68533;51.090;17.216;2024-02-23T15:34:21;5.57;;;1.60;;
79135;SDS011;68533;51.090;17.216;2024-02-23T15:37:47;3.78;;;1.50;;
79135;SDS011;68533;51.090;17.216;2024-02-23T15:41:12;4.10;;;1.85;;
79135;SDS011;68533;51.090;17.216;2024-02-23T15:44:39;5.70;;;2.15;;
79135;SDS011;68533;51.090;17.216;2024-02-23T15:48:04;4.07;;;1.60;;
79135;SDS011;68533;51.090;17.216;2024-02-23T15:51:30;2.35;;;1.40;;
79135;SDS011;68533;51.090;17.216;2024-02-23T15:54:55;5.28;;;2.03;;
79135;SDS011;68533;51.090;17.216;2024-02-23T15:58:20;3.67;;;1.40;;
79135;SDS011;68533;51.090;17.216;2024-02-23T16:01:45;4.88;;;1.98;;
79135;SDS011;68533;51.090;17.216;2024-02-23T16:05:10;6.10;;;2.50;;
79135;SDS011;68533;51.090;17.216;2024-02-23T16:08:39;3.75;;;1.73;;
79135;SDS011;68533;51.090;17.216;2024-02-23T16:12:04;2.30;;;0.88;;
79135;SDS011;68533;51.090;17.216;2024-02-23T16:15:29;4.22;;;1.60;;
79135;SDS011;68533;51.090;17.216;2024-02-23T16:18:54;5.68;;;2.33;;
79135;SDS011;68533;51.090;17.216;2024-02-23T16:22:19;3.85;;;2.40;;
79135;SDS011;68533;51.090;17.216;2024-02-23T16:25:44;5.78;;;2.80;;
79135;SDS011;68533;51.090;17.216;2024-02-23T16:29:10;5.50;;;2.63;;
79135;SDS011;68533;51.090;17.216;2024-02-23T16:32:35;5.18;;;2.47;;
79135;SDS011;68533;51.090;17.216;2024-02-23T16:35:59;5.30;;;1.92;;
79135;SDS011;68533;51.090;17.216;2024-02-23T16:39:24;4.60;;;1.85;;
79135;SDS011;68533;51.090;17.216;2024-02-23T16:42:56;6.35;;;3.13;;
79135;SDS011;68533;51.090;17.216;2024-02-23T16:46:21;6.78;;;2.92;;
79135;SDS011;68533;51.090;17.216;2024-02-23T16:49:46;5.00;;;2.15;;
79135;SDS011;68533;51.090;17.216;2024-02-23T16:53:12;7.00;;;2.05;;
79135;SDS011;68533;51.090;17.216;2024-02-23T16:56:38;6.15;;;1.80;;
79135;SDS011;68533;51.090;17.216;2024-02-23T17:00:03;3.00;;;1.50;;
79135;SDS011;68533;51.090;17.216;2024-02-23T17:03:29;3.90;;;1.83;;
79135;SDS011;68533;51.090;17.216;2024-02-23T17:06:54;5.90;;;1.95;;
79135;SDS011;68533;51.090;17.216;2024-02-23T17:10:19;6.05;;;2.03;;
79135;SDS011;68533;51.090;17.216;2024-02-23T17:13:44;4.70;;;1.92;;
79135;SDS011;68533;51.090;17.216;2024-02-23T17:17:09;5.65;;;2.30;;
79135;SDS011;68533;51.090;17.216;2024-02-23T17:20:34;7.63;;;2.72;;
79135;SDS011;68533;51.090;17.216;2024-02-23T17:23:59;8.65;;;3.72;;
79135;SDS011;68533;51.090;17.216;2024-02-23T17:27:25;8.40;;;3.08;;
79135;SDS011;68533;51.090;17.216;2024-02-23T17:30:49;5.93;;;3.15;;
79135;SDS011;68533;51.090;17.216;2024-02-23T17:34:14;8.43;;;3.60;;
79135;SDS011;68533;51.090;17.216;2024-02-23T17:37:39;8.70;;;4.32;;
79135;SDS011;68533;51.090;17.216;2024-02-23T17:41:04;11.88;;;3.50;;
79135;SDS011;68533;51.090;17.216;2024-02-23T17:44:29;12.23;;;3.67;;
79135;SDS011;68533;51.090;17.216;2024-02-23T17:47:54;14.63;;;4.72;;
79135;SDS011;68533;51.090;17.216;2024-02-23T17:51:19;9.18;;;4.25;;
79135;SDS011;68533;51.090;17.216;2024-02-23T17:54:43;9.10;;;3.75;;
79135;SDS011;68533;51.090;17.216;2024-02-23T17:58:08;7.32;;;3.13;;
79135;SDS011;68533;51.090;17.216;2024-02-23T18:01:33;6.57;;;2.22;;
79135;SDS011;68533;51.090;17.216;2024-02-23T18:04:58;8.77;;;3.22;;
79135;SDS011;68533;51.090;17.216;2024-02-23T18:08:23;14.18;;;5.30;;
79135;SDS011;68533;51.090;17.216;2024-02-23T18:11:51;8.27;;;3.47;;
79135;SDS011;68533;51.090;17.216;2024-02-23T18:15:18;5.63;;;2.08;;
79135;SDS011;68533;51.090;17.216;2024-02-23T18:18:44;7.13;;;2.60;;
79135;SDS011;68533;51.090;17.216;2024-02-23T18:22:09;6.40;;;2.85;;
79135;SDS011;68533;51.090;17.216;2024-02-23T18:25:35;6.15;;;2.97;;
79135;SDS011;68533;51.090;17.216;2024-02-23T18:29:00;7.57;;;3.00;;
79135;SDS011;68533;51.090;17.216;2024-02-23T18:32:24;7.07;;;3.50;;
79135;SDS011;68533;51.090;17.216;2024-02-23T18:35:50;7.95;;;3.50;;
79135;SDS011;68533;51.090;17.216;2024-02-23T18:39:14;12.25;;;5.10;;
79135;SDS011;68533;51.090;17.216;2024-02-23T18:42:39;14.55;;;5.15;;
79135;SDS011;68533;51.090;17.216;2024-02-23T18:46:09;18.45;;;7.93;;
79135;SDS011;68533;51.090;17.216;2024-02-23T18:49:34;21.98;;;8.75;;
79135;SDS011;68533;51.090;17.216;2024-02-23T18:53:00;12.35;;;5.47;;
79135;SDS011;68533;51.090;17.216;2024-02-23T18:56:28;13.52;;;6.03;;
79135;SDS011;68533;51.090;17.216;2024-02-23T18:59:56;13.23;;;6.07;;
79135;SDS011;68533;51.090;17.216;2024-02-23T19:03:23;11.40;;;5.45;;
79135;SDS011;68533;51.090;17.216;2024-02-23T19:06:50;9.43;;;4.68;;
79135;SDS011;68533;51.090;17.216;2024-02-23T19:10:16;11.43;;;5.22;;
79135;SDS011;68533;51.090;17.216;2024-02-23T19:13:40;13.07;;;4.80;;
79135;SDS011;68533;51.090;17.216;2024-02-23T19:17:11;13.73;;;5.38;;
79135;SDS011;68533;51.090;17.216;2024-02-23T19:20:39;10.73;;;5.18;;
79135;SDS011;68533;51.090;17.216;2024-02-23T19:24:16;7.95;;;4.32;;
79135;SDS011;68533;51.090;17.216;2024-02-23T19:27:41;11.95;;;5.18;;
79135;SDS011;68533;51.090;17.216;2024-02-23T19:31:07;9.88;;;5.47;;
79135;SDS011;68533;51.090;17.216;2024-02-23T19:34:34;11.02;;;5.28;;
79135;SDS011;68533;51.090;17.216;2024-02-23T19:38:00;12.50;;;5.45;;
79135;SDS011;68533;51.090;17.216;2024-02-23T19:41:45;10.05;;;5.75;;
79135;SDS011;68533;51.090;17.216;2024-02-23T19:45:10;12.15;;;5.53;;
79135;SDS011;68533;51.090;17.216;2024-02-23T19:48:34;11.32;;;5.80;;
79135;SDS011;68533;51.090;17.216;2024-02-23T19:52:00;14.82;;;7.07;;
79135;SDS011;68533;51.090;17.216;2024-02-23T19:55:24;15.48;;;7.53;;
79135;SDS011;68533;51.090;17.216;2024-02-23T19:58:50;15.63;;;8.02;;
79135;SDS011;68533;51.090;17.216;2024-02-23T20:02:15;17.42;;;8.05;;
79135;SDS011;68533;51.090;17.216;2024-02-23T20:05:40;15.88;;;7.88;;
79135;SDS011;68533;51.090;17.216;2024-02-23T20:09:06;10.45;;;6.72;;
79135;SDS011;68533;51.090;17.216;2024-02-23T20:12:35;11.13;;;5.53;;
79135;SDS011;68533;51.090;17.216;2024-02-23T20:16:00;11.98;;;6.85;;
79135;SDS011;68533;51.090;17.216;2024-02-23T20:19:26;14.43;;;7.65;;
79135;SDS011;68533;51.090;17.216;2024-02-23T20:22:51;15.30;;;6.80;;
79135;SDS011;68533;51.090;17.216;2024-02-23T20:26:16;11.65;;;4.72;;
79135;SDS011;68533;51.090;17.216;2024-02-23T20:29:42;8.38;;;4.57;;
79135;SDS011;68533;51.090;17.216;2024-02-23T20:33:11;11.30;;;4.88;;
79135;SDS011;68533;51.090;17.216;2024-02-23T20:36:36;12.60;;;5.32;;
79135;SDS011;68533;51.090;17.216;2024-02-23T20:40:06;13.27;;;6.35;;
79135;SDS011;68533;51.090;17.216;2024-02-23T20:43:31;13.15;;;5.43;;
79135;SDS011;68533;51.090;17.216;2024-02-23T20:46:59;12.70;;;5.93;;
79135;SDS011;68533;51.090;17.216;2024-02-23T20:50:24;11.10;;;5.47;;
79135;SDS011;68533;51.090;17.216;2024-02-23T20:57:14;6.75;;;3.53;;
79135;SDS011;68533;51.090;17.216;2024-02-23T21:00:45;5.75;;;3.88;;
79135;SDS011;68533;51.090;17.216;2024-02-23T21:04:19;10.85;;;4.30;;
79135;SDS011;68533;51.090;17.216;2024-02-23T21:07:45;10.40;;;4.20;;
79135;SDS011;68533;51.090;17.216;2024-02-23T21:11:13;10.02;;;4.65;;